Time;durP1;ratioP1;P1;durP2;ratioP2;P2;SDS_P1;SDS_P2;PMS_P1;PMS_P2;Temp;Humidity;BMP_temperature;BMP_pressure;BME280_temperature;BME280_humidity;BME280_pressure;Samples;Min_cycle;Max_cycle;Signal;HPM_P1;HPM_P2
2022/07/07 00:01:44;;;;;;;13.07;9.68;;;;;;;17.20;79.52;102039.88;6183119;23;20016;-81
2022/07/07 00:04:10;;;;;;;14.20;10.23;;;;;;;17.28;79.73;102050.63;6184361;23;20037;-79
2022/07/07 00:06:35;;;;;;;17.05;10.02;;;;;;;17.25;79.27;102047.41;6184861;23;20032;-81
2022/07/07 00:09:02;;;;;;;17.05;10.05;;;;;;;17.23;79.45;102044.91;6184748;23;20001;-78
2022/07/07 00:11:28;;;;;;;13.93;9.88;;;;;;;17.15;79.82;102029.78;6157777;23;20092;-80
2022/07/07 00:13:54;;;;;;;14.35;10.50;;;;;;;17.09;79.92;102024.16;6184643;23;20025;-80
2022/07/07 00:16:19;;;;;;;15.38;10.75;;;;;;;17.25;79.86;102040.41;6184563;23;20076;-81
2022/07/07 00:18:45;;;;;;;14.68;10.52;;;;;;;17.11;79.94;102020.53;6184337;23;20005;-78
2022/07/07 00:21:11;;;;;;;13.23;10.23;;;;;;;17.24;79.98;102035.28;6184925;23;20012;-73
2022/07/07 00:23:37;;;;;;;16.13;10.73;;;;;;;17.23;80.02;102036.25;6185062;23;20016;-70
2022/07/07 00:26:03;;;;;;;16.80;11.65;;;;;;;17.22;79.97;102019.75;6184901;23;20012;-79
2022/07/07 00:28:28;;;;;;;15.57;10.48;;;;;;;17.23;80.06;102020.59;6184787;23;20293;-74
2022/07/07 00:30:54;;;;;;;14.70;10.15;;;;;;;17.22;80.35;102001.47;6184306;23;20044;-74
2022/07/07 00:33:19;;;;;;;19.50;10.27;;;;;;;17.22;80.14;102006.69;6184712;23;20059;-72
2022/07/07 00:35:45;;;;;;;14.23;10.60;;;;;;;17.22;80.31;102005.88;6184349;23;20067;-77
2022/07/07 00:38:11;;;;;;;13.50;9.98;;;;;;;17.21;80.51;102005.03;6157424;23;20017;-70
2022/07/07 00:40:36;;;;;;;13.23;9.75;;;;;;;17.26;80.12;102002.06;6184581;23;20012;-74
2022/07/07 00:43:02;;;;;;;16.20;10.45;;;;;;;17.22;80.27;102000.66;6184921;23;20056;-70
2022/07/07 00:45:27;;;;;;;16.63;10.43;;;;;;;17.23;80.38;101997.91;6184643;23;20005;-71
2022/07/07 00:47:53;;;;;;;15.48;11.18;;;;;;;17.19;80.32;101992.06;6184418;23;20005;-70
2022/07/07 00:50:19;;;;;;;17.67;10.50;;;;;;;17.22;80.49;101995.44;6184685;23;20059;-72
2022/07/07 00:52:46;;;;;;;14.48;10.05;;;;;;;17.21;80.46;101986.75;6184321;23;20441;-76
2022/07/07 00:55:11;;;;;;;17.00;10.10;;;;;;;17.23;80.21;101979.66;6185873;23;20095;-71
2022/07/07 00:57:37;;;;;;;14.20;9.85;;;;;;;17.03;80.30;101944.56;6186391;23;20054;-73
2022/07/07 01:00:09;;;;;;;14.43;9.90;;;;;;;17.25;80.06;101982.97;6160089;23;20442;-72
2022/07/07 01:02:35;;;;;;;12.45;8.95;;;;;;;17.26;80.38;101983.81;6186526;23;20051;-71
2022/07/07 01:05:05;;;;;;;12.65;8.60;;;;;;;17.26;80.64;101982.03;6186523;23;20009;-71
2022/07/07 01:07:31;;;;;;;12.10;8.25;;;;;;;17.28;79.97;101985.34;6186803;23;20326;-77
2022/07/07 01:09:58;;;;;;;14.90;8.90;;;;;;;17.27;80.26;101986.28;6186142;23;20005;-71
2022/07/07 01:12:23;;;;;;;14.90;9.10;;;;;;;17.30;80.37;101982.63;6186027;23;20056;-70
2022/07/07 01:14:49;;;;;;;14.88;8.55;;;;;;;17.15;79.90;101961.09;6186369;23;20001;-71
2022/07/07 01:17:14;;;;;;;13.77;9.43;;;;;;;17.31;79.87;101986.94;6186188;23;20437;-74
2022/07/07 01:19:39;;;;;;;16.40;8.90;;;;;;;17.25;80.16;101977.75;6183492;23;20019;-71
2022/07/07 01:22:13;;;;;;;12.13;8.43;;;;;;;17.28;80.57;101985.34;6186706;23;20020;-71
2022/07/07 01:24:39;;;;;;;13.20;8.45;;;;;;;17.28;80.39;101982.75;6186180;23;20001;-71
2022/07/07 01:27:06;;;;;;;13.95;9.05;;;;;;;17.28;80.39;101987.97;6186141;23;20028;-72
2022/07/07 01:29:39;;;;;;;11.93;9.02;;;;;;;17.28;80.73;101989.75;6186196;23;20438;-71
2022/07/07 01:32:05;;;;;;;12.63;9.40;;;;;;;17.26;81.11;101968.13;6186035;23;20422;-71
2022/07/07 01:34:31;;;;;;;13.18;8.98;;;;;;;17.25;81.00;101961.25;6186469;23;20025;-79
2022/07/07 01:36:57;;;;;;;13.80;8.05;;;;;;;17.27;81.08;101960.19;6185956;23;20031;-76
2022/07/07 01:39:22;;;;;;;11.93;8.57;;;;;;;17.14;81.37;101951.59;6185822;23;20017;-72
2022/07/07 01:41:47;;;;;;;11.15;8.20;;;;;;;17.16;81.20;101949.69;6185855;23;20044;-74
2022/07/07 01:44:13;;;;;;;14.75;8.13;;;;;;;17.26;81.13;101960.31;6186036;23;19997;-80
2022/07/07 01:46:38;;;;;;;11.55;8.27;;;;;;;17.25;81.19;101956.88;6185889;23;20005;-74
2022/07/07 01:49:03;;;;;;;10.50;7.65;;;;;;;17.25;81.41;101951.66;6186362;23;20005;-70
2022/07/07 01:51:29;;;;;;;15.57;7.72;;;;;;;17.08;81.69;101923.31;6186075;23;20007;-79
2022/07/07 01:53:54;;;;;;;12.63;8.02;;;;;;;17.24;81.57;101955.19;6185941;23;20334;-77
2022/07/07 01:56:19;;;;;;;11.02;7.45;;;;;;;17.20;81.79;101951.13;6185908;23;20059;-74
2022/07/07 01:58:45;;;;;;;10.80;7.00;;;;;;;17.26;81.58;101949.88;6186040;23;20080;-72
2022/07/07 02:01:10;;;;;;;10.82;7.25;;;;;;;17.28;81.91;101942.75;6186053;23;20063;-71
2022/07/07 02:03:35;;;;;;;11.50;7.60;;;;;;;17.27;81.96;101944.53;6185579;23;20005;-71
2022/07/07 02:06:01;;;;;;;10.75;6.85;;;;;;;17.30;81.89;101943.47;6185449;23;20005;-75
2022/07/07 02:08:26;;;;;;;11.93;6.22;;;;;;;17.30;81.72;101943.47;6185662;23;20001;-72
2022/07/07 02:13:35;;;;;;;10.82;5.78;;;;;;;17.31;82.43;101947.75;6185931;23;20024;-70
2022/07/07 02:16:00;;;;;;;9.63;5.53;;;;;;;17.32;82.07;101945.03;6185910;23;20079;-77
2022/07/07 02:18:26;;;;;;;11.48;5.82;;;;;;;17.34;82.41;101940.53;6185550;23;20005;-71
2022/07/07 02:20:51;;;;;;;8.60;5.38;;;;;;;17.35;82.22;101944.78;6186127;23;20012;-72
2022/07/07 02:23:17;;;;;;;9.13;5.30;;;;;;;17.37;82.27;101937.69;6185902;23;20005;-70
2022/07/07 02:25:42;;;;;;;9.20;5.22;;;;;;;17.40;82.21;101941.84;6186018;23;20435;-71
2022/07/07 02:28:07;;;;;;;8.80;5.00;;;;;;;17.29;82.57;101926.97;6185744;23;20445;-71
2022/07/07 02:30:32;;;;;;;9.43;5.10;;;;;;;17.42;82.11;101942.56;6185874;23;20019;-71
2022/07/07 02:32:58;;;;;;;9.13;4.82;;;;;;;17.43;81.98;101936.41;6185480;23;20004;-76
2022/07/07 02:35:23;;;;;;;9.63;4.90;;;;;;;17.42;82.65;101937.34;6185676;23;20028;-75
2022/07/07 02:37:48;;;;;;;9.10;4.75;;;;;;;17.43;83.35;101936.41;6185608;23;20020;-75
2022/07/07 02:40:14;;;;;;;10.38;5.32;;;;;;;17.31;82.64;101913.81;6185784;23;20028;-78
2022/07/07 02:42:39;;;;;;;8.65;4.50;;;;;;;17.42;82.76;101939.97;6185959;23;20005;-78
2022/07/07 02:45:05;;;;;;;7.63;4.57;;;;;;;17.42;82.37;101945.19;6185766;23;20056;-76
2022/07/07 02:47:30;;;;;;;7.03;4.40;;;;;;;17.33;82.07;101928.41;6159124;23;20011;-72
2022/07/07 02:49:55;;;;;;;6.82;4.32;;;;;;;17.32;81.30;101920.72;6185779;23;20009;-71
2022/07/07 02:52:21;;;;;;;7.13;4.10;;;;;;;17.45;80.91;101945.78;6183768;23;20005;-70
2022/07/07 02:54:46;;;;;;;8.25;3.45;;;;;;;17.30;80.14;101920.78;6185395;23;20008;-70
2022/07/07 02:57:13;;;;;;;6.80;3.67;;;;;;;17.41;79.72;101946.97;6159199;23;20335;-71
2022/07/07 02:59:38;;;;;;;6.82;3.40;;;;;;;17.44;79.92;101946.72;6185766;23;20300;-71
2022/07/07 03:02:04;;;;;;;6.70;3.40;;;;;;;17.43;78.40;101942.47;6185724;23;20001;-71
2022/07/07 03:04:29;;;;;;;8.13;2.90;;;;;;;17.42;77.99;101945.19;6184917;23;20382;-71
2022/07/07 03:06:54;;;;;;;6.32;2.75;;;;;;;17.40;77.85;101947.06;6185144;23;20080;-70
2022/07/07 03:09:19;;;;;;;5.10;2.90;;;;;;;17.37;77.96;101948.13;6185636;23;20088;-75
2022/07/07 03:11:45;;;;;;;6.90;2.85;;;;;;;17.37;77.74;101939.47;6185585;23;20318;-70
2022/07/07 03:14:10;;;;;;;4.50;2.45;;;;;;;17.33;77.49;101949.31;6185336;23;20005;-70
2022/07/07 03:16:35;;;;;;;4.88;2.40;;;;;;;17.30;77.59;101965.19;6184902;23;20001;-71
2022/07/07 03:19:01;;;;;;;5.93;2.67;;;;;;;17.23;78.48;101958.75;6184875;23;20012;-71
2022/07/07 03:21:26;;;;;;;5.75;2.70;;;;;;;17.15;79.34;101958.47;6185349;23;20323;-70
2022/07/07 03:23:51;;;;;;;4.75;2.72;;;;;;;16.85;82.45;101948.47;6184839;23;20009;-71
2022/07/07 03:26:16;;;;;;;4.75;3.00;;;;;;;16.69;83.96;101953.94;6184813;23;20051;-70
2022/07/07 03:28:42;;;;;;;4.88;2.40;;;;;;;16.57;84.56;101952.19;6185638;23;20005;-71
2022/07/07 03:31:07;;;;;;;6.18;2.90;;;;;;;16.38;85.58;101926.56;6185037;23;20001;-71
2022/07/07 03:33:33;;;;;;;3.85;2.80;;;;;;;16.52;85.93;101956.91;6185434;23;20016;-71
2022/07/07 03:35:58;;;;;;;5.25;3.00;;;;;;;16.46;86.40;101957.31;6185072;23;20033;-70
2022/07/07 03:38:23;;;;;;;5.55;2.92;;;;;;;16.44;86.05;101953.97;6184609;23;20012;-71
2022/07/07 03:40:48;;;;;;;4.10;2.70;;;;;;;16.42;86.77;101948.03;6185079;23;20036;-79
2022/07/07 03:43:14;;;;;;;6.35;3.10;;;;;;;16.42;88.08;101956.69;6184713;23;20437;-70
2022/07/07 03:45:40;;;;;;;4.40;2.88;;;;;;;16.39;87.89;101949.06;6184935;23;20009;-71
2022/07/07 03:48:06;;;;;;;5.40;3.20;;;;;;;16.38;87.71;101950.03;6184867;23;20088;-71
2022/07/07 03:50:31;;;;;;;6.43;3.03;;;;;;;16.28;87.94;101935.97;6185301;23;20059;-71
2022/07/07 03:52:56;;;;;;;6.63;3.05;;;;;;;16.35;88.11;101945.84;6185094;23;20087;-72
2022/07/07 03:55:22;;;;;;;4.95;3.28;;;;;;;16.29;89.03;101942.84;6184915;23;20044;-70
2022/07/07 03:57:48;;;;;;;8.20;3.55;;;;;;;16.31;89.20;101944.38;6184929;23;20005;-71
2022/07/07 04:00:14;;;;;;;5.07;3.33;;;;;;;16.32;89.98;101943.47;6184725;23;20060;-71
2022/07/07 04:02:39;;;;;;;8.70;3.33;;;;;;;16.23;89.85;101933.69;6184601;23;20033;-71
2022/07/07 04:05:05;;;;;;;5.32;3.65;;;;;;;16.32;90.64;101950.44;6184623;23;20012;-71
2022/07/07 04:07:33;;;;;;;6.35;3.53;;;;;;;16.32;90.56;101943.47;6184800;23;20312;-71
2022/07/07 04:10:00;;;;;;;6.20;3.60;;;;;;;16.30;91.10;101937.50;6184799;23;20036;-71
2022/07/07 04:12:25;;;;;;;7.80;3.88;;;;;;;16.14;91.81;101897.00;6185117;23;20009;-72
2022/07/07 04:14:50;;;;;;;6.70;4.00;;;;;;;16.28;91.18;101921.16;6184955;23;20339;-77
2022/07/07 04:17:16;;;;;;;5.47;3.90;;;;;;;16.30;92.20;101932.28;6185055;23;20407;-71
2022/07/07 04:19:41;;;;;;;7.00;3.90;;;;;;;16.31;91.53;101933.13;6184681;23;20001;-71
2022/07/07 04:22:07;;;;;;;8.05;4.40;;;;;;;16.33;92.15;101932.09;6185271;23;20005;-71
2022/07/07 04:24:32;;;;;;;7.57;3.92;;;;;;;16.37;91.75;101931.88;6184621;23;20056;-72
2022/07/07 04:26:57;;;;;;;8.60;4.32;;;;;;;16.34;92.33;101922.50;6185142;23;20331;-71
2022/07/07 04:29:23;;;;;;;7.13;4.25;;;;;;;16.35;93.15;101929.38;6186503;23;20001;-80
2022/07/07 04:31:48;;;;;;;7.75;4.50;;;;;;;16.27;94.64;101932.53;6187147;23;20027;-76
2022/07/07 04:34:13;;;;;;;9.07;4.45;;;;;;;16.22;94.74;101937.22;6186723;23;20005;-80
2022/07/07 04:36:39;;;;;;;8.30;4.75;;;;;;;16.18;95.15;101953.16;6187247;23;20005;-75
2022/07/07 04:39:05;;;;;;;7.18;4.43;;;;;;;16.11;96.00;101951.91;6186775;23;20020;-75
2022/07/07 04:41:30;;;;;;;8.20;4.22;;;;;;;16.12;96.13;101959.63;6186629;23;20005;-73
2022/07/07 04:43:55;;;;;;;8.45;3.83;;;;;;;16.02;95.58;101950.75;6186559;23;20001;-71
2022/07/07 04:46:21;;;;;;;7.13;3.28;;;;;;;16.04;96.22;101957.56;6186592;23;20005;-79
2022/07/07 04:48:46;;;;;;;5.38;3.47;;;;;;;15.98;96.46;101962.34;6186786;23;20001;-81
2022/07/07 04:51:11;;;;;;;6.75;3.22;;;;;;;15.94;96.90;101958.28;6186597;23;20001;-71
2022/07/07 04:53:37;;;;;;;6.68;3.70;;;;;;;15.99;97.17;101969.22;6186487;23;20063;-71
2022/07/07 04:56:03;;;;;;;5.55;2.70;;;;;;;15.99;96.84;101971.81;6186534;23;20051;-71
2022/07/07 04:58:28;;;;;;;8.07;3.13;;;;;;;16.04;96.77;101967.97;6186281;23;20016;-71
2022/07/07 05:00:54;;;;;;;7.13;3.30;;;;;;;16.08;96.59;101960.78;6186948;23;20001;-71
2022/07/07 05:03:19;;;;;;;8.05;3.30;;;;;;;16.17;96.31;101962.75;6186895;23;20013;-71
2022/07/07 05:05:44;;;;;;;7.97;3.17;;;;;;;15.90;96.21;101921.16;6186385;23;20012;-71
2022/07/07 05:08:10;;;;;;;7.70;3.33;;;;;;;16.25;96.53;101972.66;6186849;23;20016;-71
2022/07/07 05:10:35;;;;;;;5.72;2.33;;;;;;;16.28;94.82;101986.31;6186632;23;20373;-73
2022/07/07 05:13:00;;;;;;;6.63;2.78;;;;;;;16.26;95.11;101982.97;6186645;23;20005;-71
2022/07/07 05:15:26;;;;;;;8.73;2.63;;;;;;;16.12;95.14;101972.66;6185297;23;20048;-74
2022/07/07 05:17:51;;;;;;;5.10;2.38;;;;;;;16.27;94.41;101987.25;6186553;23;20007;-72
2022/07/07 05:20:17;;;;;;;9.00;2.28;;;;;;;16.30;94.00;101996.63;6186159;23;20033;-71
2022/07/07 05:22:42;;;;;;;7.07;2.40;;;;;;;16.36;93.95;102001.44;6186428;23;20008;-71
2022/07/07 05:25:07;;;;;;;4.15;1.83;;;;;;;16.35;93.60;101981.53;6186673;23;20001;-71
2022/07/07 05:27:33;;;;;;;5.55;2.00;;;;;;;16.54;93.58;102005.38;6186286;23;20012;-71
2022/07/07 05:29:58;;;;;;;5.72;2.13;;;;;;;16.63;92.48;101996.09;6186346;23;20050;-79
2022/07/07 05:32:23;;;;;;;3.78;1.88;;;;;;;16.79;91.13;102001.91;6186231;23;20001;-71
2022/07/07 05:34:49;;;;;;;5.97;2.25;;;;;;;16.91;90.80;102008.91;6186152;23;20458;-75
2022/07/07 05:37:14;;;;;;;7.53;2.22;;;;;;;16.86;90.66;102008.38;6186320;23;20068;-77
2022/07/07 05:39:39;;;;;;;9.20;2.33;;;;;;;16.90;90.51;102011.59;6185390;23;20005;-75
2022/07/07 05:42:05;;;;;;;6.80;2.00;;;;;;;16.80;89.57;101998.34;6186330;23;20072;-79
2022/07/07 05:44:30;;;;;;;5.80;2.00;;;;;;;16.85;89.24;102019.75;6186456;23;20380;-74
2022/07/07 05:46:55;;;;;;;7.28;1.95;;;;;;;16.83;90.05;102021.63;6186304;23;20006;-70
2022/07/07 05:49:21;;;;;;;7.88;1.75;;;;;;;16.77;90.23;102029.06;6186072;23;20088;-78
2022/07/07 05:51:46;;;;;;;7.43;2.00;;;;;;;16.61;91.35;102035.28;6186272;23;20009;-71
2022/07/07 05:54:11;;;;;;;5.32;1.98;;;;;;;16.53;91.44;102034.19;6183130;23;20036;-77
2022/07/07 05:56:37;;;;;;;7.38;1.85;;;;;;;16.40;91.63;102031.56;6186532;23;20017;-72
2022/07/07 05:59:02;;;;;;;7.88;1.90;;;;;;;16.43;91.16;102039.19;6185830;23;20011;-72
2022/07/07 06:01:27;;;;;;;7.20;2.40;;;;;;;16.61;92.14;102048.34;6185987;23;20419;-74
2022/07/07 06:03:53;;;;;;;8.02;2.10;;;;;;;17.63;88.45;102050.69;6185930;23;20008;-73
2022/07/07 06:06:18;;;;;;;12.15;2.08;;;;;;;18.49;80.99;102046.88;6186079;23;20051;-73
2022/07/07 06:08:43;;;;;;;7.88;1.67;;;;;;;19.34;75.04;102024.41;6185875;23;20001;-73
2022/07/07 06:11:09;;;;;;;8.02;1.80;;;;;;;19.39;73.01;102058.94;6186194;23;20374;-73
2022/07/07 06:13:34;;;;;;;7.55;1.65;;;;;;;18.87;74.35;102065.69;6186346;23;20047;-74
2022/07/07 06:15:59;;;;;;;11.98;1.88;;;;;;;18.51;76.59;102071.97;6185973;23;20114;-73
2022/07/07 06:18:25;;;;;;;8.63;1.88;;;;;;;18.47;74.95;102067.06;6186347;23;20005;-76
2022/07/07 06:20:50;;;;;;;10.38;1.67;;;;;;;18.39;75.35;102074.69;6185514;23;20009;-75
2022/07/07 06:23:15;;;;;;;10.88;2.13;;;;;;;18.32;76.00;102079.56;6186043;23;20300;-76
2022/07/07 06:25:42;;;;;;;8.60;2.10;;;;;;;18.43;75.52;102092.63;6186200;23;20048;-77
2022/07/07 06:28:07;;;;;;;7.43;1.52;;;;;;;18.34;74.55;102088.09;6185804;23;20048;-76
2022/07/07 06:30:33;;;;;;;10.88;2.15;;;;;;;18.43;74.78;102091.81;6185641;23;20002;-78
2022/07/07 06:32:58;;;;;;;11.00;2.15;;;;;;;18.38;73.83;102073.84;6185454;23;20005;-79
2022/07/07 06:35:24;;;;;;;7.18;1.98;;;;;;;18.42;72.32;102064.81;6185034;23;20005;-75
2022/07/07 06:37:52;;;;;;;11.70;1.92;;;;;;;18.52;71.12;102091.13;6185190;23;20052;-75
2022/07/07 06:40:18;;;;;;;14.25;2.47;;;;;;;18.42;71.72;102098.81;6186003;23;20011;-75
2022/07/07 06:42:43;;;;;;;14.05;2.20;;;;;;;18.19;73.83;102095.34;6185722;23;20032;-75
2022/07/07 06:45:08;;;;;;;8.80;2.03;;;;;;;17.97;72.69;102126.63;6186060;23;20004;-74
2022/07/07 06:47:34;;;;;;;8.35;1.85;;;;;;;17.63;74.04;102136.06;6185457;23;20010;-73
2022/07/07 06:49:59;;;;;;;7.53;1.50;;;;;;;17.38;75.33;102140.41;6185472;23;20016;-74
2022/07/07 06:52:25;;;;;;;9.50;1.40;;;;;;;17.24;74.79;102134.50;6184821;23;20084;-73
2022/07/07 06:54:50;;;;;;;7.78;1.83;;;;;;;17.47;76.05;102115.41;6185655;23;20071;-74
2022/07/07 06:57:15;;;;;;;6.32;1.45;;;;;;;17.84;73.88;102124.06;6185735;23;20323;-72
2022/07/07 06:59:41;;;;;;;6.20;1.48;;;;;;;18.31;72.37;102136.25;6185489;23;20001;-74
2022/07/07 07:02:07;;;;;;;6.78;1.50;;;;;;;19.29;69.70;102123.50;6185600;23;20009;-73
2022/07/07 07:04:32;;;;;;;7.53;1.33;;;;;;;20.32;63.97;102122.03;6185600;23;20323;-77
2022/07/07 07:06:58;;;;;;;5.82;1.42;;;;;;;21.44;60.37;102125.63;6185283;23;20005;-74
2022/07/07 07:09:23;;;;;;;8.35;1.33;;;;;;;22.71;57.05;102125.34;6185738;23;20001;-73
2022/07/07 07:11:49;;;;;;;6.03;1.33;;;;;;;23.36;52.71;102133.25;6158820;23;20008;-74
2022/07/07 07:14:15;;;;;;;7.03;1.38;;;;;;;24.10;51.67;102130.34;6185436;23;20008;-72
2022/07/07 07:16:40;;;;;;;4.93;1.40;;;;;;;25.39;48.07;102131.22;6185793;23;20005;-74
2022/07/07 07:19:05;;;;;;;4.90;1.08;;;;;;;25.83;45.70;102141.53;6185674;23;20028;-74
2022/07/07 07:21:31;;;;;;;3.22;1.02;;;;;;;26.26;45.47;102138.53;6185183;23;20005;-74
2022/07/07 07:23:56;;;;;;;6.75;1.02;;;;;;;25.55;46.09;102149.72;6185390;23;20041;-73
2022/07/07 07:26:22;;;;;;;4.60;1.27;;;;;;;24.38;48.62;102146.06;6185341;23;20362;-78
2022/07/07 07:28:47;;;;;;;4.47;1.23;;;;;;;23.39;50.39;102146.13;6185257;23;20474;-72
2022/07/07 07:31:12;;;;;;;6.18;1.20;;;;;;;22.57;53.61;102147.72;6158515;23;20307;-75
2022/07/07 07:33:38;;;;;;;6.55;1.05;;;;;;;21.72;55.12;102109.00;6185233;23;20075;-76
2022/07/07 07:36:07;;;;;;;6.75;1.25;;;;;;;21.05;56.50;102153.53;6185220;23;20001;-80
2022/07/07 07:38:37;;;;;;;4.90;0.90;;;;;;;20.77;58.92;102165.56;6185139;23;20009;-78
2022/07/07 07:41:05;;;;;;;5.75;1.10;;;;;;;20.44;59.54;102153.47;6185111;23;20001;-79
2022/07/07 07:43:30;;;;;;;6.03;1.33;;;;;;;20.27;60.64;102178.50;6185343;23;20064;-73
2022/07/07 07:45:55;;;;;;;6.43;1.35;;;;;;;20.33;62.19;102175.34;6185385;23;20415;-73
2022/07/07 07:48:21;;;;;;;7.50;1.40;;;;;;;20.71;61.15;102171.34;6185386;23;20005;-72
2022/07/07 07:50:46;;;;;;;5.72;1.33;;;;;;;20.84;59.46;102174.56;6183793;23;20009;-73
2022/07/07 07:53:12;;;;;;;6.82;1.40;;;;;;;20.68;59.30;102177.69;6185039;23;20005;-72
2022/07/07 07:55:38;;;;;;;6.57;1.40;;;;;;;20.28;59.93;102173.13;6185013;23;20008;-73
2022/07/07 07:58:04;;;;;;;10.10;1.60;;;;;;;19.85;61.37;102181.00;6184884;23;20335;-72
2022/07/07 08:00:30;;;;;;;7.47;1.48;;;;;;;19.55;63.10;102192.13;6185155;23;20028;-73
2022/07/07 08:02:55;;;;;;;4.97;1.38;;;;;;;19.18;66.44;102163.63;6184871;23;20028;-73
2022/07/07 08:05:20;;;;;;;5.10;1.23;;;;;;;19.05;68.02;102188.25;6184896;23;20009;-72
2022/07/07 08:07:46;;;;;;;3.70;1.10;;;;;;;18.83;69.16;102195.13;6184973;23;20009;-72
2022/07/07 08:10:14;;;;;;;7.40;1.40;;;;;;;18.62;68.92;102194.09;6184005;23;20005;-70
2022/07/07 08:12:41;;;;;;;6.68;1.35;;;;;;;18.54;69.11;102205.16;6186161;23;20040;-72
2022/07/07 08:15:07;;;;;;;4.70;1.00;;;;;;;18.23;70.97;102206.59;6158583;23;20363;-71
2022/07/07 08:17:32;;;;;;;4.95;1.08;;;;;;;17.84;71.36;102184.19;6185064;23;20072;-71
2022/07/07 08:19:58;;;;;;;6.93;1.20;;;;;;;17.81;71.91;102207.94;6185079;23;20066;-72
2022/07/07 08:22:23;;;;;;;6.50;1.65;;;;;;;17.58;72.99;102204.28;6184637;23;20032;-73
2022/07/07 08:24:49;;;;;;;7.07;1.50;;;;;;;17.77;72.85;102207.28;6184867;23;20005;-73
2022/07/07 08:27:14;;;;;;;7.53;1.30;;;;;;;17.93;73.24;102211.44;6185141;23;20068;-72
2022/07/07 08:29:40;;;;;;;5.28;1.30;;;;;;;18.24;71.21;102220.50;6184892;23;20005;-70
2022/07/07 08:32:07;;;;;;;5.65;0.98;;;;;;;18.27;68.47;102222.88;6184549;23;20433;-72
2022/07/07 08:34:33;;;;;;;3.38;0.90;;;;;;;18.41;69.76;102216.66;6184742;23;20009;-72
2022/07/07 08:36:58;;;;;;;5.88;1.23;;;;;;;18.60;69.49;102191.63;6184778;23;20024;-71
2022/07/07 08:39:25;;;;;;;5.28;1.08;;;;;;;18.90;68.34;102221.69;6154537;23;20021;-70
2022/07/07 08:41:50;;;;;;;5.03;1.58;;;;;;;19.14;67.97;102213.72;6155022;23;20462;-77
2022/07/07 08:44:17;;;;;;;6.07;1.60;;;;;;;19.37;67.89;102214.53;6154981;23;19997;-72
2022/07/07 08:46:43;;;;;;;6.72;1.40;;;;;;;19.57;67.22;102206.00;6155042;23;20304;-73
2022/07/07 08:49:09;;;;;;;5.35;1.08;;;;;;;19.94;67.19;102213.53;6154611;23;20025;-72
2022/07/07 08:51:40;;;;;;;7.95;1.33;;;;;;;19.74;64.78;102173.19;6154463;23;20008;-76
2022/07/07 08:54:05;;;;;;;4.65;0.90;;;;;;;20.11;62.12;102213.00;6154749;23;20009;-74
2022/07/07 08:56:32;;;;;;;5.80;1.70;;;;;;;19.97;62.67;102203.66;6154576;23;20002;-74
2022/07/07 08:58:58;;;;;;;6.25;1.00;;;;;;;19.87;62.83;102191.41;6154741;23;20005;-71
2022/07/07 09:01:23;;;;;;;7.55;1.38;;;;;;;20.45;62.30;102211.09;6154856;23;20068;-78
2022/07/07 09:03:49;;;;;;;5.75;1.23;;;;;;;20.31;62.84;102229.72;6154533;23;20006;-72
2022/07/07 09:06:14;;;;;;;7.97;1.05;;;;;;;20.19;62.55;102233.38;6128523;23;20010;-71
2022/07/07 09:08:40;;;;;;;4.47;1.35;;;;;;;20.38;64.34;102232.69;6154993;23;20008;-76
2022/07/07 09:11:09;;;;;;;4.00;1.05;;;;;;;20.50;62.28;102248.28;6154421;23;20006;-77
2022/07/07 09:13:35;;;;;;;5.47;1.00;;;;;;;20.54;61.52;102247.06;6154670;23;20005;-74
2022/07/07 09:16:12;;;;;;;6.13;1.10;;;;;;;20.45;62.20;102246.97;6156087;23;20069;-74
2022/07/07 09:18:44;;;;;;;6.50;1.30;;;;;;;19.98;63.28;102252.50;6156803;23;20024;-73
2022/07/07 09:21:31;;;;;;;7.53;1.52;;;;;;;19.56;64.10;102267.19;6155979;23;20006;-76
2022/07/07 09:24:06;;;;;;;6.53;1.33;;;;;;;19.31;66.01;102263.00;6156469;23;20161;-73
2022/07/07 09:26:45;;;;;;;6.00;1.30;;;;;;;19.06;65.66;102260.59;6156808;23;20013;-74
2022/07/07 09:29:13;;;;;;;8.00;1.65;;;;;;;18.86;68.04;102262.94;6130140;23;20056;-76
2022/07/07 09:31:54;;;;;;;8.63;1.42;;;;;;;18.86;67.26;102264.72;6156385;23;20016;-77
2022/07/07 09:34:21;;;;;;;7.55;1.75;;;;;;;19.06;66.92;102274.53;6156507;23;20092;-75
2022/07/07 09:39:52;;;;;;;8.45;1.38;;;;;;;19.99;64.98;102267.28;6155787;23;20032;-73
2022/07/07 09:42:20;;;;;;;6.30;1.45;;;;;;;20.49;61.15;102272.88;6156671;23;20032;-76
2022/07/07 09:45:08;;;;;;;6.68;1.65;;;;;;;20.96;60.24;102277.75;6156335;23;20001;-74
2022/07/07 09:47:34;;;;;;;5.10;0.95;;;;;;;21.06;61.23;102281.28;6156222;23;20036;-77
2022/07/07 09:50:04;;;;;;;10.32;1.40;;;;;;;20.67;61.36;102253.94;6156201;23;20067;-82
2022/07/07 09:52:31;;;;;;;3.55;0.82;;;;;;;20.84;60.81;102280.47;6155669;23;20005;-75
2022/07/07 09:54:58;;;;;;;4.43;0.93;;;;;;;21.04;61.74;102293.69;6156381;23;20092;-81
2022/07/07 09:57:24;;;;;;;4.20;1.00;;;;;;;21.12;59.74;102291.25;6156316;23;20068;-81
2022/07/07 09:59:50;;;;;;;7.32;1.45;;;;;;;21.16;60.73;102276.91;6156357;23;20009;-78
2022/07/07 10:02:24;;;;;;;6.35;1.30;;;;;;;21.23;59.36;102278.03;6156058;23;20332;-80
2022/07/07 10:04:55;;;;;;;2.35;0.63;;;;;;;20.85;59.46;102318.06;6156112;23;20059;-81
2022/07/07 10:07:22;;;;;;;3.78;0.65;;;;;;;20.35;61.06;102309.84;6156242;23;20002;-77
2022/07/07 10:09:51;;;;;;;3.70;0.95;;;;;;;20.10;62.22;102318.88;6155811;23;20084;-80
2022/07/07 10:12:16;;;;;;;6.32;1.15;;;;;;;19.60;64.04;102297.47;6155994;23;20089;-78
2022/07/07 10:14:43;;;;;;;2.72;1.15;;;;;;;19.47;64.30;102330.78;6130008;23;20074;-80
2022/07/07 10:17:10;;;;;;;6.50;1.48;;;;;;;19.05;66.94;102306.91;6156502;23;20370;-78
2022/07/07 10:19:36;;;;;;;5.18;1.40;;;;;;;18.94;67.55;102340.06;6155869;23;20459;-79
2022/07/07 10:22:02;;;;;;;4.97;1.20;;;;;;;18.89;67.92;102343.03;6156300;23;20035;-75
2022/07/07 10:24:32;;;;;;;8.15;1.85;;;;;;;18.89;68.90;102345.66;6155607;23;20485;-79
2022/07/07 10:27:00;;;;;;;6.32;1.40;;;;;;;18.95;70.12;102321.63;6155731;23;20086;-80
2022/07/07 10:29:37;;;;;;;3.53;1.60;;;;;;;19.51;68.68;102353.19;6155673;23;20053;-77
2022/07/07 10:32:03;;;;;;;5.95;1.70;;;;;;;19.96;67.87;102343.56;6155438;23;20005;-78
2022/07/07 10:34:33;;;;;;;4.40;1.70;;;;;;;20.40;65.32;102346.22;6155909;23;20012;-79
2022/07/07 10:37:01;;;;;;;4.80;1.50;;;;;;;20.54;63.81;102324.97;6155774;23;20001;-79
2022/07/07 10:39:30;;;;;;;6.05;1.50;;;;;;;20.61;63.29;102339.25;6128688;23;20088;-80
2022/07/07 10:42:16;;;;;;;5.10;1.20;;;;;;;20.78;64.13;102358.88;6155953;23;20013;-79
2022/07/07 10:44:44;;;;;;;3.92;1.10;;;;;;;20.50;62.28;102339.31;6155671;23;20017;-79
2022/07/07 10:47:13;;;;;;;4.60;1.50;;;;;;;20.21;63.17;102362.59;6156008;23;20324;-85
2022/07/07 10:49:48;;;;;;;5.65;1.35;;;;;;;19.93;64.39;102350.81;6155428;23;19997;-82
2022/07/07 10:52:25;;;;;;;8.40;1.30;;;;;;;19.60;64.88;102365.59;6155680;23;20428;-85
2022/07/07 10:54:53;;;;;;;5.45;1.27;;;;;;;19.46;66.16;102382.34;6155472;23;20010;-79
2022/07/07 10:57:21;;;;;;;7.07;1.20;;;;;;;19.41;68.78;102378.41;6155378;23;20491;-80
2022/07/07 11:00:00;;;;;;;4.10;1.40;;;;;;;19.70;68.22;102387.53;6155304;23;20431;-85
2022/07/07 11:02:42;;;;;;;4.68;1.33;;;;;;;20.17;66.21;102380.38;6129214;23;20013;-85
2022/07/07 11:05:13;;;;;;;1.95;1.00;;;;;;;20.18;65.39;102389.91;6155514;23;20013;-84
2022/07/07 11:07:40;;;;;;;3.47;1.02;;;;;;;20.12;65.35;102394.81;6155883;23;20005;-84
2022/07/07 11:10:11;;;;;;;4.78;1.05;;;;;;;20.04;65.38;102403.25;6155218;23;20332;-79
2022/07/07 11:12:39;;;;;;;5.20;1.20;;;;;;;20.00;66.01;102397.44;6155145;23;20010;-83
2022/07/07 11:15:30;;;;;;;5.22;1.05;;;;;;;19.95;66.20;102403.97;6129160;23;20013;-83
2022/07/07 11:17:55;;;;;;;3.53;1.08;;;;;;;19.89;66.78;102407.09;6155494;23;20009;-84
2022/07/07 11:20:23;;;;;;;5.63;1.60;;;;;;;19.49;67.58;102403.09;6155725;23;20033;-81
2022/07/07 11:22:51;;;;;;;5.15;1.80;;;;;;;19.08;70.17;102416.66;6155695;23;20010;-77
2022/07/07 11:25:19;;;;;;;10.55;2.05;;;;;;;18.77;71.55;102398.88;6155359;23;20044;-78